sensor_id;sensor_type;location;lat;lon;timestamp;P1;durP1;ratioP1;P2;durP2;ratioP2
74957;SDS011;63741;42.624;26.276;2023-05-20T06:28:39;9.25;;;4.90;;
74957;SDS011;63741;42.624;26.276;2023-05-20T06:31:07;7.55;;;5.05;;
74957;SDS011;63741;42.624;26.276;2023-05-20T06:33:34;8.85;;;5.00;;
74957;SDS011;63741;42.624;26.276;2023-05-20T06:38:33;7.25;;;5.03;;
74957;SDS011;63741;42.624;26.276;2023-05-20T06:41:00;9.93;;;4.88;;
74957;SDS011;63741;42.624;26.276;2023-05-20T06:43:29;8.90;;;4.78;;
74957;SDS011;63741;42.624;26.276;2023-05-20T06:46:22;7.65;;;5.03;;
74957;SDS011;63741;42.624;26.276;2023-05-20T06:48:55;6.60;;;4.80;;
74957;SDS011;63741;42.624;26.276;2023-05-20T06:51:23;7.97;;;4.97;;
74957;SDS011;63741;42.624;26.276;2023-05-20T06:53:50;7.15;;;4.80;;
74957;SDS011;63741;42.624;26.276;2023-05-20T06:56:18;8.32;;;4.63;;
74957;SDS011;63741;42.624;26.276;2023-05-20T06:58:47;8.18;;;4.88;;
74957;SDS011;63741;42.624;26.276;2023-05-20T07:01:14;12.05;;;5.18;;
74957;SDS011;63741;42.624;26.276;2023-05-20T07:03:45;8.05;;;5.05;;
74957;SDS011;63741;42.624;26.276;2023-05-20T07:06:12;6.65;;;4.25;;
74957;SDS011;63741;42.624;26.276;2023-05-20T07:08:39;6.57;;;4.45;;
74957;SDS011;63741;42.624;26.276;2023-05-20T07:11:07;8.50;;;4.35;;
74957;SDS011;63741;42.624;26.276;2023-05-20T07:13:34;8.15;;;4.65;;
74957;SDS011;63741;42.624;26.276;2023-05-20T07:16:01;12.02;;;4.10;;
74957;SDS011;63741;42.624;26.276;2023-05-20T07:18:28;9.95;;;4.45;;
74957;SDS011;63741;42.624;26.276;2023-05-20T07:20:55;5.50;;;4.07;;
74957;SDS011;63741;42.624;26.276;2023-05-20T07:23:39;6.97;;;4.47;;
74957;SDS011;63741;42.624;26.276;2023-05-20T07:26:06;8.77;;;4.10;;
74957;SDS011;63741;42.624;26.276;2023-05-20T07:28:33;6.03;;;4.10;;
74957;SDS011;63741;42.624;26.276;2023-05-20T07:31:02;6.70;;;4.25;;
74957;SDS011;63741;42.624;26.276;2023-05-20T07:33:31;6.40;;;4.03;;
74957;SDS011;63741;42.624;26.276;2023-05-20T07:35:58;6.85;;;3.90;;
74957;SDS011;63741;42.624;26.276;2023-05-20T07:38:25;7.18;;;4.40;;
74957;SDS011;63741;42.624;26.276;2023-05-20T07:40:57;7.40;;;4.63;;
74957;SDS011;63741;42.624;26.276;2023-05-20T07:43:26;10.10;;;4.70;;
74957;SDS011;63741;42.624;26.276;2023-05-20T07:45:55;7.13;;;4.60;;
74957;SDS011;63741;42.624;26.276;2023-05-20T07:48:22;9.88;;;4.90;;
74957;SDS011;63741;42.624;26.276;2023-05-20T07:50:50;8.82;;;4.85;;
74957;SDS011;63741;42.624;26.276;2023-05-20T07:53:25;8.23;;;4.50;;
74957;SDS011;63741;42.624;26.276;2023-05-20T07:55:53;7.38;;;4.47;;
74957;SDS011;63741;42.624;26.276;2023-05-20T07:58:20;9.55;;;4.90;;
74957;SDS011;63741;42.624;26.276;2023-05-20T08:00:49;11.57;;;4.82;;
74957;SDS011;63741;42.624;26.276;2023-05-20T08:03:16;8.70;;;4.65;;
74957;SDS011;63741;42.624;26.276;2023-05-20T08:06:02;10.27;;;4.72;;
74957;SDS011;63741;42.624;26.276;2023-05-20T08:08:29;10.63;;;4.60;;
74957;SDS011;63741;42.624;26.276;2023-05-20T08:11:02;8.57;;;4.40;;
74957;SDS011;63741;42.624;26.276;2023-05-20T08:13:33;9.55;;;5.35;;
74957;SDS011;63741;42.624;26.276;2023-05-20T08:16:00;11.77;;;4.72;;
74957;SDS011;63741;42.624;26.276;2023-05-20T08:18:35;9.07;;;4.53;;
74957;SDS011;63741;42.624;26.276;2023-05-20T08:21:06;7.50;;;4.30;;
74957;SDS011;63741;42.624;26.276;2023-05-20T08:23:33;6.97;;;4.53;;
74957;SDS011;63741;42.624;26.276;2023-05-20T08:28:35;8.60;;;4.40;;
74957;SDS011;63741;42.624;26.276;2023-05-20T08:31:06;6.95;;;4.72;;
74957;SDS011;63741;42.624;26.276;2023-05-20T08:33:34;9.20;;;4.78;;
74957;SDS011;63741;42.624;26.276;2023-05-20T08:36:03;8.85;;;4.80;;
74957;SDS011;63741;42.624;26.276;2023-05-20T08:38:34;7.90;;;4.43;;
74957;SDS011;63741;42.624;26.276;2023-05-20T08:41:02;7.45;;;4.80;;
74957;SDS011;63741;42.624;26.276;2023-05-20T08:43:33;9.52;;;4.80;;
74957;SDS011;63741;42.624;26.276;2023-05-20T08:46:04;9.88;;;4.70;;
74957;SDS011;63741;42.624;26.276;2023-05-20T08:48:35;10.65;;;4.43;;
74957;SDS011;63741;42.624;26.276;2023-05-20T08:51:04;8.40;;;4.70;;
74957;SDS011;63741;42.624;26.276;2023-05-20T08:53:35;8.52;;;4.32;;
74957;SDS011;63741;42.624;26.276;2023-05-20T08:56:03;12.23;;;5.07;;
74957;SDS011;63741;42.624;26.276;2023-05-20T08:58:31;6.60;;;4.10;;
74957;SDS011;63741;42.624;26.276;2023-05-20T09:00:58;8.85;;;4.78;;
74957;SDS011;63741;42.624;26.276;2023-05-20T09:03:26;11.65;;;4.40;;
74957;SDS011;63741;42.624;26.276;2023-05-20T09:06:02;8.32;;;4.85;;
74957;SDS011;63741;42.624;26.276;2023-05-20T09:08:32;6.60;;;4.22;;
74957;SDS011;63741;42.624;26.276;2023-05-20T09:11:00;15.10;;;4.38;;
74957;SDS011;63741;42.624;26.276;2023-05-20T09:13:29;7.95;;;4.03;;
74957;SDS011;63741;42.624;26.276;2023-05-20T09:15:59;11.43;;;4.28;;
74957;SDS011;63741;42.624;26.276;2023-05-20T09:18:27;10.43;;;4.30;;
74957;SDS011;63741;42.624;26.276;2023-05-20T09:20:55;6.65;;;3.80;;
74957;SDS011;63741;42.624;26.276;2023-05-20T09:23:22;6.75;;;4.10;;
74957;SDS011;63741;42.624;26.276;2023-05-20T09:25:51;11.60;;;4.40;;
74957;SDS011;63741;42.624;26.276;2023-05-20T09:28:19;7.75;;;3.90;;
74957;SDS011;63741;42.624;26.276;2023-05-20T09:30:55;9.40;;;4.30;;
74957;SDS011;63741;42.624;26.276;2023-05-20T09:33:31;8.27;;;4.10;;
74957;SDS011;63741;42.624;26.276;2023-05-20T09:36:02;12.68;;;4.57;;
74957;SDS011;63741;42.624;26.276;2023-05-20T09:38:30;12.07;;;4.15;;
74957;SDS011;63741;42.624;26.276;2023-05-20T09:41:15;19.38;;;4.60;;
74957;SDS011;63741;42.624;26.276;2023-05-20T09:43:43;10.80;;;4.47;;
74957;SDS011;63741;42.624;26.276;2023-05-20T09:46:10;7.00;;;3.83;;
74957;SDS011;63741;42.624;26.276;2023-05-20T09:48:37;8.93;;;4.30;;
74957;SDS011;63741;42.624;26.276;2023-05-20T09:51:07;8.13;;;4.10;;
74957;SDS011;63741;42.624;26.276;2023-05-20T09:53:36;10.23;;;4.30;;
74957;SDS011;63741;42.624;26.276;2023-05-20T09:56:05;10.60;;;4.13;;
74957;SDS011;63741;42.624;26.276;2023-05-20T09:58:32;5.78;;;3.90;;
74957;SDS011;63741;42.624;26.276;2023-05-20T10:01:01;11.27;;;4.60;;
74957;SDS011;63741;42.624;26.276;2023-05-20T10:03:31;6.78;;;3.92;;
74957;SDS011;63741;42.624;26.276;2023-05-20T10:06:09;8.63;;;4.65;;
74957;SDS011;63741;42.624;26.276;2023-05-20T10:19:57;12.48;;;4.50;;
74957;SDS011;63741;42.624;26.276;2023-05-20T10:22:26;9.73;;;4.85;;
74957;SDS011;63741;42.624;26.276;2023-05-20T10:24:58;6.43;;;4.18;;
74957;SDS011;63741;42.624;26.276;2023-05-20T10:27:26;14.35;;;5.97;;
74957;SDS011;63741;42.624;26.276;2023-05-20T10:29:56;19.08;;;6.70;;
74957;SDS011;63741;42.624;26.276;2023-05-20T10:32:27;18.02;;;5.10;;
74957;SDS011;63741;42.624;26.276;2023-05-20T10:34:59;7.20;;;4.07;;
74957;SDS011;63741;42.624;26.276;2023-05-20T10:37:41;6.90;;;4.43;;
74957;SDS011;63741;42.624;26.276;2023-05-20T10:40:14;10.60;;;5.05;;
74957;SDS011;63741;42.624;26.276;2023-05-20T10:42:49;10.43;;;4.18;;
74957;SDS011;63741;42.624;26.276;2023-05-20T10:45:25;9.82;;;4.35;;
74957;SDS011;63741;42.624;26.276;2023-05-20T10:47:56;10.93;;;4.85;;
74957;SDS011;63741;42.624;26.276;2023-05-20T10:50:28;7.75;;;4.57;;
74957;SDS011;63741;42.624;26.276;2023-05-20T10:53:01;7.70;;;4.93;;
74957;SDS011;63741;42.624;26.276;2023-05-20T10:58:09;10.20;;;4.95;;
74957;SDS011;63741;42.624;26.276;2023-05-20T11:00:37;10.30;;;5.22;;
74957;SDS011;63741;42.624;26.276;2023-05-20T11:03:05;10.43;;;5.00;;
74957;SDS011;63741;42.624;26.276;2023-05-20T11:05:33;8.57;;;4.32;;
74957;SDS011;63741;42.624;26.276;2023-05-20T11:08:01;10.32;;;4.78;;
74957;SDS011;63741;42.624;26.276;2023-05-20T11:10:52;9.50;;;4.93;;
74957;SDS011;63741;42.624;26.276;2023-05-20T11:13:22;11.43;;;5.75;;
74957;SDS011;63741;42.624;26.276;2023-05-20T11:15:49;10.98;;;5.68;;
74957;SDS011;63741;42.624;26.276;2023-05-20T11:18:16;10.90;;;5.00;;
74957;SDS011;63741;42.624;26.276;2023-05-20T11:20:45;9.48;;;4.20;;
74957;SDS011;63741;42.624;26.276;2023-05-20T11:23:13;9.25;;;4.72;;
74957;SDS011;63741;42.624;26.276;2023-05-20T11:25:41;9.60;;;4.70;;
74957;SDS011;63741;42.624;26.276;2023-05-20T11:28:11;8.77;;;4.97;;
74957;SDS011;63741;42.624;26.276;2023-05-20T11:30:42;6.07;;;4.60;;
74957;SDS011;63741;42.624;26.276;2023-05-20T11:33:13;8.65;;;4.47;;
74957;SDS011;63741;42.624;26.276;2023-05-20T11:35:45;9.00;;;4.63;;
74957;SDS011;63741;42.624;26.276;2023-05-20T11:38:13;7.55;;;4.55;;
74957;SDS011;63741;42.624;26.276;2023-05-20T11:40:42;10.43;;;4.95;;
74957;SDS011;63741;42.624;26.276;2023-05-20T11:43:17;6.15;;;4.50;;
74957;SDS011;63741;42.624;26.276;2023-05-20T11:45:55;8.90;;;4.63;;
74957;SDS011;63741;42.624;26.276;2023-05-20T11:48:26;9.23;;;4.57;;
74957;SDS011;63741;42.624;26.276;2023-05-20T11:50:54;7.80;;;4.25;;
74957;SDS011;63741;42.624;26.276;2023-05-20T11:53:22;10.15;;;4.78;;
74957;SDS011;63741;42.624;26.276;2023-05-20T11:55:55;13.77;;;5.57;;
74957;SDS011;63741;42.624;26.276;2023-05-20T11:58:29;12.68;;;5.20;;
74957;SDS011;63741;42.624;26.276;2023-05-20T12:00:57;11.02;;;4.80;;
74957;SDS011;63741;42.624;26.276;2023-05-20T12:03:44;8.85;;;5.05;;
74957;SDS011;63741;42.624;26.276;2023-05-20T12:06:11;8.80;;;5.18;;
74957;SDS011;63741;42.624;26.276;2023-05-20T12:08:39;12.55;;;5.07;;
74957;SDS011;63741;42.624;26.276;2023-05-20T12:11:08;7.55;;;4.80;;
74957;SDS011;63741;42.624;26.276;2023-05-20T12:13:36;12.60;;;5.07;;
74957;SDS011;63741;42.624;26.276;2023-05-20T12:16:03;10.48;;;4.80;;
74957;SDS011;63741;42.624;26.276;2023-05-20T12:18:31;9.27;;;4.65;;
74957;SDS011;63741;42.624;26.276;2023-05-20T12:20:59;12.23;;;4.18;;
74957;SDS011;63741;42.624;26.276;2023-05-20T12:23:26;14.20;;;5.57;;
74957;SDS011;63741;42.624;26.276;2023-05-20T12:25:56;8.10;;;4.57;;
74957;SDS011;63741;42.624;26.276;2023-05-20T12:28:22;10.50;;;4.70;;
74957;SDS011;63741;42.624;26.276;2023-05-20T12:30:49;8.10;;;4.40;;
74957;SDS011;63741;42.624;26.276;2023-05-20T12:33:17;9.80;;;4.57;;
74957;SDS011;63741;42.624;26.276;2023-05-20T12:35:47;10.93;;;4.40;;
74957;SDS011;63741;42.624;26.276;2023-05-20T12:38:13;11.20;;;5.70;;
74957;SDS011;63741;42.624;26.276;2023-05-20T12:40:40;13.25;;;6.72;;
74957;SDS011;63741;42.624;26.276;2023-05-20T12:43:07;10.40;;;4.97;;
74957;SDS011;63741;42.624;26.276;2023-05-20T12:45:34;11.68;;;4.20;;
74957;SDS011;63741;42.624;26.276;2023-05-20T12:48:01;13.68;;;6.32;;
74957;SDS011;63741;42.624;26.276;2023-05-20T12:50:28;20.85;;;9.52;;
74957;SDS011;63741;42.624;26.276;2023-05-20T12:52:55;13.98;;;6.57;;
74957;SDS011;63741;42.624;26.276;2023-05-20T12:55:22;9.82;;;5.00;;
74957;SDS011;63741;42.624;26.276;2023-05-20T12:57:49;15.00;;;6.40;;
74957;SDS011;63741;42.624;26.276;2023-05-20T13:00:16;18.20;;;8.23;;
74957;SDS011;63741;42.624;26.276;2023-05-20T13:02:46;12.68;;;5.85;;
74957;SDS011;63741;42.624;26.276;2023-05-20T13:05:14;17.17;;;7.38;;
74957;SDS011;63741;42.624;26.276;2023-05-20T13:07:41;10.75;;;5.68;;
74957;SDS011;63741;42.624;26.276;2023-05-20T13:10:09;16.60;;;6.50;;
74957;SDS011;63741;42.624;26.276;2023-05-20T13:12:37;10.63;;;4.55;;
74957;SDS011;63741;42.624;26.276;2023-05-20T13:15:04;9.60;;;4.28;;
74957;SDS011;63741;42.624;26.276;2023-05-20T13:17:32;7.85;;;4.00;;
74957;SDS011;63741;42.624;26.276;2023-05-20T13:19:59;8.05;;;4.32;;
74957;SDS011;63741;42.624;26.276;2023-05-20T13:22:26;7.38;;;3.90;;
74957;SDS011;63741;42.624;26.276;2023-05-20T13:24:52;17.67;;;5.13;;
74957;SDS011;63741;42.624;26.276;2023-05-20T13:27:19;11.13;;;4.22;;
74957;SDS011;63741;42.624;26.276;2023-05-20T13:29:49;7.93;;;4.03;;
74957;SDS011;63741;42.624;26.276;2023-05-20T13:32:16;7.70;;;4.32;;
74957;SDS011;63741;42.624;26.276;2023-05-20T13:34:43;8.95;;;4.30;;
74957;SDS011;63741;42.624;26.276;2023-05-20T13:37:10;8.65;;;3.95;;
74957;SDS011;63741;42.624;26.276;2023-05-20T13:39:40;9.32;;;4.30;;
74957;SDS011;63741;42.624;26.276;2023-05-20T13:42:06;8.95;;;4.50;;
74957;SDS011;63741;42.624;26.276;2023-05-20T13:44:33;12.18;;;4.72;;
74957;SDS011;63741;42.624;26.276;2023-05-20T13:47:00;7.07;;;3.85;;
74957;SDS011;63741;42.624;26.276;2023-05-20T13:49:27;6.97;;;3.80;;
74957;SDS011;63741;42.624;26.276;2023-05-20T13:51:54;11.02;;;4.30;;
74957;SDS011;63741;42.624;26.276;2023-05-20T13:54:21;16.60;;;4.85;;
74957;SDS011;63741;42.624;26.276;2023-05-20T13:56:48;20.50;;;4.80;;
74957;SDS011;63741;42.624;26.276;2023-05-20T13:59:15;26.05;;;4.85;;
74957;SDS011;63741;42.624;26.276;2023-05-20T14:01:42;24.77;;;5.28;;
74957;SDS011;63741;42.624;26.276;2023-05-20T14:04:11;16.23;;;4.18;;
74957;SDS011;63741;42.624;26.276;2023-05-20T14:06:38;12.40;;;4.50;;
74957;SDS011;63741;42.624;26.276;2023-05-20T14:09:06;11.15;;;4.25;;
74957;SDS011;63741;42.624;26.276;2023-05-20T14:11:34;9.48;;;4.20;;
74957;SDS011;63741;42.624;26.276;2023-05-20T14:14:01;7.35;;;3.97;;
74957;SDS011;63741;42.624;26.276;2023-05-20T14:16:29;7.32;;;3.53;;
74957;SDS011;63741;42.624;26.276;2023-05-20T14:18:57;6.85;;;3.50;;
74957;SDS011;63741;42.624;26.276;2023-05-20T14:21:24;7.97;;;3.97;;
74957;SDS011;63741;42.624;26.276;2023-05-20T14:23:54;9.60;;;3.80;;
74957;SDS011;63741;42.624;26.276;2023-05-20T14:26:21;7.57;;;3.58;;
74957;SDS011;63741;42.624;26.276;2023-05-20T14:28:48;8.93;;;4.13;;
74957;SDS011;63741;42.624;26.276;2023-05-20T14:31:16;9.35;;;4.40;;
74957;SDS011;63741;42.624;26.276;2023-05-20T14:33:43;7.80;;;4.10;;
74957;SDS011;63741;42.624;26.276;2023-05-20T14:36:10;14.65;;;4.15;;
74957;SDS011;63741;42.624;26.276;2023-05-20T14:38:37;9.15;;;4.32;;
74957;SDS011;63741;42.624;26.276;2023-05-20T14:41:04;10.52;;;4.40;;
74957;SDS011;63741;42.624;26.276;2023-05-20T14:43:31;8.07;;;4.13;;
74957;SDS011;63741;42.624;26.276;2023-05-20T14:45:58;12.07;;;3.90;;
74957;SDS011;63741;42.624;26.276;2023-05-20T14:48:25;10.63;;;4.07;;
74957;SDS011;63741;42.624;26.276;2023-05-20T14:50:52;8.35;;;3.90;;
74957;SDS011;63741;42.624;26.276;2023-05-20T14:53:19;24.98;;;4.30;;
74957;SDS011;63741;42.624;26.276;2023-05-20T14:55:46;7.72;;;4.18;;
74957;SDS011;63741;42.624;26.276;2023-05-20T14:58:13;9.90;;;4.45;;
74957;SDS011;63741;42.624;26.276;2023-05-20T15:00:40;8.75;;;3.90;;
74957;SDS011;63741;42.624;26.276;2023-05-20T15:03:07;9.15;;;4.25;;
74957;SDS011;63741;42.624;26.276;2023-05-20T15:05:34;11.63;;;3.90;;
74957;SDS011;63741;42.624;26.276;2023-05-20T15:08:01;12.93;;;3.95;;
74957;SDS011;63741;42.624;26.276;2023-05-20T15:10:28;8.27;;;3.42;;
74957;SDS011;63741;42.624;26.276;2023-05-20T15:12:55;10.05;;;4.00;;
74957;SDS011;63741;42.624;26.276;2023-05-20T15:15:22;6.35;;;3.72;;
74957;SDS011;63741;42.624;26.276;2023-05-20T15:17:49;7.68;;;3.75;;
74957;SDS011;63741;42.624;26.276;2023-05-20T15:20:19;10.93;;;3.95;;
74957;SDS011;63741;42.624;26.276;2023-05-20T15:22:46;8.15;;;4.10;;
74957;SDS011;63741;42.624;26.276;2023-05-20T15:25:13;8.18;;;4.00;;
74957;SDS011;63741;42.624;26.276;2023-05-20T15:27:41;7.05;;;3.55;;
74957;SDS011;63741;42.624;26.276;2023-05-20T15:30:08;5.88;;;3.80;;
74957;SDS011;63741;42.624;26.276;2023-05-20T15:32:38;7.70;;;3.88;;
74957;SDS011;63741;42.624;26.276;2023-05-20T15:35:06;9.23;;;3.70;;
74957;SDS011;63741;42.624;26.276;2023-05-20T15:37:37;7.63;;;3.95;;
74957;SDS011;63741;42.624;26.276;2023-05-20T15:40:06;13.70;;;4.00;;
74957;SDS011;63741;42.624;26.276;2023-05-20T15:42:34;9.73;;;3.97;;
74957;SDS011;63741;42.624;26.276;2023-05-20T15:45:01;12.05;;;4.07;;
74957;SDS011;63741;42.624;26.276;2023-05-20T15:47:34;12.10;;;4.65;;
74957;SDS011;63741;42.624;26.276;2023-05-20T15:50:03;9.73;;;3.90;;
74957;SDS011;63741;42.624;26.276;2023-05-20T15:52:36;7.63;;;3.80;;
74957;SDS011;63741;42.624;26.276;2023-05-20T15:55:03;7.60;;;3.65;;
74957;SDS011;63741;42.624;26.276;2023-05-20T15:57:31;13.80;;;3.83;;
74957;SDS011;63741;42.624;26.276;2023-05-20T15:59:58;8.40;;;4.00;;
74957;SDS011;63741;42.624;26.276;2023-05-20T16:02:24;15.07;;;4.88;;
74957;SDS011;63741;42.624;26.276;2023-05-20T16:04:52;11.63;;;4.20;;
74957;SDS011;63741;42.624;26.276;2023-05-20T16:07:19;11.65;;;4.53;;
74957;SDS011;63741;42.624;26.276;2023-05-20T16:09:46;6.85;;;3.70;;
74957;SDS011;63741;42.624;26.276;2023-05-20T16:12:13;9.38;;;3.75;;
74957;SDS011;63741;42.624;26.276;2023-05-20T16:14:41;8.23;;;4.82;;
74957;SDS011;63741;42.624;26.276;2023-05-20T16:17:10;11.25;;;4.70;;
74957;SDS011;63741;42.624;26.276;2023-05-20T16:19:37;18.63;;;4.22;;
74957;SDS011;63741;42.624;26.276;2023-05-20T16:22:04;12.77;;;3.72;;
74957;SDS011;63741;42.624;26.276;2023-05-20T16:24:31;12.55;;;3.95;;
74957;SDS011;63741;42.624;26.276;2023-05-20T16:26:58;9.30;;;3.70;;
74957;SDS011;63741;42.624;26.276;2023-05-20T16:29:25;16.98;;;4.57;;
74957;SDS011;63741;42.624;26.276;2023-05-20T16:31:52;13.85;;;5.75;;
74957;SDS011;63741;42.624;26.276;2023-05-20T16:34:19;15.88;;;5.47;;
74957;SDS011;63741;42.624;26.276;2023-05-20T16:36:46;12.07;;;4.20;;
74957;SDS011;63741;42.624;26.276;2023-05-20T16:39:13;11.07;;;4.47;;
74957;SDS011;63741;42.624;26.276;2023-05-20T16:41:41;10.50;;;3.95;;
74957;SDS011;63741;42.624;26.276;2023-05-20T16:44:08;9.98;;;4.10;;
74957;SDS011;63741;42.624;26.276;2023-05-20T16:46:36;10.25;;;3.90;;
74957;SDS011;63741;42.624;26.276;2023-05-20T16:49:03;10.25;;;4.53;;
74957;SDS011;63741;42.624;26.276;2023-05-20T16:51:32;11.40;;;4.68;;
74957;SDS011;63741;42.624;26.276;2023-05-20T16:53:59;12.30;;;5.78;;
74957;SDS011;63741;42.624;26.276;2023-05-20T16:56:27;13.55;;;5.82;;
74957;SDS011;63741;42.624;26.276;2023-05-20T16:58:54;12.75;;;5.80;;
74957;SDS011;63741;42.624;26.276;2023-05-20T17:01:23;13.93;;;6.38;;
74957;SDS011;63741;42.624;26.276;2023-05-20T17:03:50;12.95;;;5.13;;
74957;SDS011;63741;42.624;26.276;2023-05-20T17:06:17;14.80;;;6.00;;
74957;SDS011;63741;42.624;26.276;2023-05-20T17:08:44;12.95;;;5.75;;
74957;SDS011;63741;42.624;26.276;2023-05-20T17:11:11;13.02;;;5.20;;
74957;SDS011;63741;42.624;26.276;2023-05-20T17:13:41;12.07;;;4.28;;
74957;SDS011;63741;42.624;26.276;2023-05-20T17:16:08;11.48;;;4.80;;
74957;SDS011;63741;42.624;26.276;2023-05-20T17:18:37;13.20;;;4.95;;
74957;SDS011;63741;42.624;26.276;2023-05-20T17:21:07;14.43;;;4.47;;
74957;SDS011;63741;42.624;26.276;2023-05-20T17:23:34;12.77;;;4.90;;
74957;SDS011;63741;42.624;26.276;2023-05-20T17:26:01;12.18;;;4.78;;
74957;SDS011;63741;42.624;26.276;2023-05-20T17:28:32;18.17;;;4.70;;
74957;SDS011;63741;42.624;26.276;2023-05-20T17:31:02;17.00;;;4.90;;
74957;SDS011;63741;42.624;26.276;2023-05-20T17:33:29;9.35;;;4.65;;
74957;SDS011;63741;42.624;26.276;2023-05-20T17:35:59;14.13;;;4.43;;
74957;SDS011;63741;42.624;26.276;2023-05-20T17:38:26;11.32;;;4.35;;
74957;SDS011;63741;42.624;26.276;2023-05-20T17:40:54;7.43;;;3.60;;
74957;SDS011;63741;42.624;26.276;2023-05-20T17:43:21;10.38;;;4.20;;
74957;SDS011;63741;42.624;26.276;2023-05-20T17:45:53;14.55;;;4.78;;
74957;SDS011;63741;42.624;26.276;2023-05-20T17:48:25;15.63;;;4.50;;
74957;SDS011;63741;42.624;26.276;2023-05-20T17:50:52;12.45;;;3.83;;
74957;SDS011;63741;42.624;26.276;2023-05-20T17:53:21;11.05;;;3.97;;
74957;SDS011;63741;42.624;26.276;2023-05-20T17:55:55;8.75;;;4.03;;
74957;SDS011;63741;42.624;26.276;2023-05-20T17:58:22;11.10;;;4.30;;
74957;SDS011;63741;42.624;26.276;2023-05-20T18:00:52;11.90;;;4.43;;
74957;SDS011;63741;42.624;26.276;2023-05-20T18:03:19;9.02;;;3.95;;
74957;SDS011;63741;42.624;26.276;2023-05-20T18:05:48;10.93;;;3.90;;
74957;SDS011;63741;42.624;26.276;2023-05-20T18:08:15;10.38;;;3.47;;
74957;SDS011;63741;42.624;26.276;2023-05-20T18:10:46;8.63;;;3.78;;
74957;SDS011;63741;42.624;26.276;2023-05-20T18:13:13;10.45;;;4.63;;
74957;SDS011;63741;42.624;26.276;2023-05-20T18:15:40;11.52;;;4.45;;
74957;SDS011;63741;42.624;26.276;2023-05-20T18:18:07;12.50;;;4.72;;
74957;SDS011;63741;42.624;26.276;2023-05-20T18:20:34;9.48;;;3.88;;
74957;SDS011;63741;42.624;26.276;2023-05-20T18:23:02;10.13;;;4.15;;
74957;SDS011;63741;42.624;26.276;2023-05-20T18:25:29;10.13;;;4.03;;
74957;SDS011;63741;42.624;26.276;2023-05-20T18:27:56;8.52;;;4.07;;
74957;SDS011;63741;42.624;26.276;2023-05-20T18:30:25;7.88;;;3.95;;
74957;SDS011;63741;42.624;26.276;2023-05-20T18:32:52;12.65;;;4.82;;
74957;SDS011;63741;42.624;26.276;2023-05-20T18:35:22;12.05;;;3.83;;
74957;SDS011;63741;42.624;26.276;2023-05-20T18:37:54;10.90;;;4.38;;
74957;SDS011;63741;42.624;26.276;2023-05-20T18:40:21;9.95;;;4.30;;
74957;SDS011;63741;42.624;26.276;2023-05-20T18:42:48;12.10;;;4.15;;
74957;SDS011;63741;42.624;26.276;2023-05-20T18:45:16;13.23;;;4.63;;
74957;SDS011;63741;42.624;26.276;2023-05-20T18:47:43;9.75;;;4.20;;
74957;SDS011;63741;42.624;26.276;2023-05-20T18:50:10;10.68;;;5.07;;
74957;SDS011;63741;42.624;26.276;2023-05-20T18:52:37;12.70;;;4.90;;
74957;SDS011;63741;42.624;26.276;2023-05-20T18:55:04;12.85;;;4.60;;
74957;SDS011;63741;42.624;26.276;2023-05-20T18:57:31;12.00;;;5.10;;
74957;SDS011;63741;42.624;26.276;2023-05-20T18:59:58;14.98;;;5.22;;
74957;SDS011;63741;42.624;26.276;2023-05-20T19:02:25;14.32;;;4.70;;
74957;SDS011;63741;42.624;26.276;2023-05-20T19:04:52;9.20;;;3.83;;
74957;SDS011;63741;42.624;26.276;2023-05-20T19:07:19;8.32;;;3.40;;
74957;SDS011;63741;42.624;26.276;2023-05-20T19:09:48;6.57;;;3.50;;
74957;SDS011;63741;42.624;26.276;2023-05-20T19:12:17;9.52;;;3.70;;
74957;SDS011;63741;42.624;26.276;2023-05-20T19:14:45;5.60;;;3.40;;
74957;SDS011;63741;42.624;26.276;2023-05-20T19:17:13;7.45;;;3.13;;
74957;SDS011;63741;42.624;26.276;2023-05-20T19:19:41;10.65;;;3.67;;
74957;SDS011;63741;42.624;26.276;2023-05-20T19:22:11;12.57;;;4.20;;
74957;SDS011;63741;42.624;26.276;2023-05-20T19:24:45;10.88;;;3.67;;
74957;SDS011;63741;42.624;26.276;2023-05-20T19:27:12;9.63;;;3.40;;
74957;SDS011;63741;42.624;26.276;2023-05-20T19:29:43;9.73;;;3.45;;
74957;SDS011;63741;42.624;26.276;2023-05-20T19:32:10;8.43;;;3.38;;
74957;SDS011;63741;42.624;26.276;2023-05-20T19:34:39;10.23;;;3.40;;
74957;SDS011;63741;42.624;26.276;2023-05-20T19:37:10;7.05;;;3.40;;
74957;SDS011;63741;42.624;26.276;2023-05-20T19:39:41;7.97;;;3.47;;
74957;SDS011;63741;42.624;26.276;2023-05-20T19:42:08;7.35;;;3.15;;
74957;SDS011;63741;42.624;26.276;2023-05-20T19:44:35;6.72;;;3.50;;
74957;SDS011;63741;42.624;26.276;2023-05-20T19:47:08;8.75;;;3.40;;
74957;SDS011;63741;42.624;26.276;2023-05-20T19:49:35;10.77;;;3.58;;
74957;SDS011;63741;42.624;26.276;2023-05-20T19:52:04;7.38;;;3.58;;
74957;SDS011;63741;42.624;26.276;2023-05-20T19:54:32;5.82;;;3.05;;
74957;SDS011;63741;42.624;26.276;2023-05-20T19:57:02;8.05;;;3.35;;
74957;SDS011;63741;42.624;26.276;2023-05-20T19:59:29;7.55;;;3.40;;
74957;SDS011;63741;42.624;26.276;2023-05-20T20:01:56;7.05;;;3.55;;
74957;SDS011;63741;42.624;26.276;2023-05-20T20:04:28;9.63;;;3.45;;
74957;SDS011;63741;42.624;26.276;2023-05-20T20:06:56;6.28;;;3.25;;
74957;SDS011;63741;42.624;26.276;2023-05-20T20:09:23;8.52;;;3.55;;
74957;SDS011;63741;42.624;26.276;2023-05-20T20:11:50;7.68;;;3.28;;
74957;SDS011;63741;42.624;26.276;2023-05-20T20:14:19;6.68;;;3.40;;
74957;SDS011;63741;42.624;26.276;2023-05-20T20:16:49;8.90;;;3.40;;
74957;SDS011;63741;42.624;26.276;2023-05-20T20:19:17;13.40;;;3.58;;
74957;SDS011;63741;42.624;26.276;2023-05-20T20:21:47;8.07;;;3.63;;
74957;SDS011;63741;42.624;26.276;2023-05-20T20:24:26;8.95;;;3.70;;
74957;SDS011;63741;42.624;26.276;2023-05-20T20:26:55;8.80;;;3.30;;
74957;SDS011;63741;42.624;26.276;2023-05-20T20:29:32;9.50;;;3.40;;
74957;SDS011;63741;42.624;26.276;2023-05-20T20:31:59;7.90;;;3.60;;
74957;SDS011;63741;42.624;26.276;2023-05-20T20:34:26;8.20;;;3.63;;
74957;SDS011;63741;42.624;26.276;2023-05-20T20:36:57;7.03;;;3.08;;
74957;SDS011;63741;42.624;26.276;2023-05-20T20:39:27;7.45;;;3.15;;
74957;SDS011;63741;42.624;26.276;2023-05-20T20:41:55;17.55;;;4.18;;
74957;SDS011;63741;42.624;26.276;2023-05-20T20:44:24;7.72;;;3.20;;
74957;SDS011;63741;42.624;26.276;2023-05-20T20:46:52;6.22;;;3.35;;
74957;SDS011;63741;42.624;26.276;2023-05-20T20:49:21;7.05;;;3.28;;
74957;SDS011;63741;42.624;26.276;2023-05-20T20:51:49;6.97;;;3.20;;
74957;SDS011;63741;42.624;26.276;2023-05-20T20:54:19;7.57;;;3.33;;
74957;SDS011;63741;42.624;26.276;2023-05-20T20:56:46;8.57;;;3.10;;
74957;SDS011;63741;42.624;26.276;2023-05-20T20:59:15;8.15;;;3.00;;
74957;SDS011;63741;42.624;26.276;2023-05-20T21:01:42;7.15;;;3.08;;
74957;SDS011;63741;42.624;26.276;2023-05-20T21:04:12;9.50;;;2.97;;
74957;SDS011;63741;42.624;26.276;2023-05-20T21:06:39;7.63;;;2.88;;
74957;SDS011;63741;42.624;26.276;2023-05-20T21:09:12;6.93;;;3.30;;
74957;SDS011;63741;42.624;26.276;2023-05-20T21:11:40;7.55;;;3.17;;
74957;SDS011;63741;42.624;26.276;2023-05-20T21:14:08;11.40;;;3.70;;
74957;SDS011;63741;42.624;26.276;2023-05-20T21:16:35;6.80;;;3.17;;
74957;SDS011;63741;42.624;26.276;2023-05-20T21:19:02;7.00;;;2.92;;
74957;SDS011;63741;42.624;26.276;2023-05-20T21:21:30;8.82;;;3.03;;
74957;SDS011;63741;42.624;26.276;2023-05-20T21:23:57;9.77;;;3.13;;